Time;durP1;ratioP1;P1;durP2;ratioP2;P2;SDS_P1;SDS_P2;PMS_P1;PMS_P2;Temp;Humidity;BMP_temperature;BMP_pressure;BME280_temperature;BME280_humidity;BME280_pressure;Samples;Min_cycle;Max_cycle;Signal;HPM_P1;HPM_P2
2022/06/01 00:00:38;;;;;;;4.25;3.42;;;;;;;9.15;85.71;101226.06;2079824;28;44305;-75
2022/06/01 00:01:40;;;;;;;4.47;3.50;;;;;;;9.15;85.58;101222.47;2087080;28;45374;-75
2022/06/01 00:02:47;;;;;;;3.55;3.28;;;;;;;9.16;84.74;101221.59;2086818;28;45353;-75
2022/06/01 00:03:49;;;;;;;5.20;3.47;;;;;;;9.18;85.50;101227.78;2079906;28;43633;-76
2022/06/01 00:04:50;;;;;;;4.32;3.60;;;;;;;9.20;85.08;101219.75;2079794;28;45545;-77
2022/06/01 00:05:53;;;;;;;3.17;2.85;;;;;;;9.20;85.32;101225.09;2079894;28;45918;-76
2022/06/01 00:06:57;;;;;;;3.22;2.88;;;;;;;9.21;84.60;101224.22;2079717;28;44295;-74
2022/06/01 00:08:01;;;;;;;3.65;3.17;;;;;;;9.23;85.40;101227.75;2080479;28;20168;-76
2022/06/01 00:09:04;;;;;;;3.92;3.35;;;;;;;9.23;85.20;101219.72;2080193;28;42354;-75
2022/06/01 00:10:08;;;;;;;4.75;3.40;;;;;;;9.27;85.27;101216.09;2079699;28;44087;-74
2022/06/01 00:11:10;;;;;;;3.50;3.10;;;;;;;9.25;84.71;101218.78;2080999;28;44923;-73
2022/06/01 00:12:12;;;;;;;4.57;2.80;;;;;;;9.27;84.96;101222.31;2078840;28;40783;-75
2022/06/01 00:13:14;;;;;;;2.95;2.72;;;;;;;9.25;83.93;101215.25;2080087;28;42946;-74
2022/06/01 00:14:16;;;;;;;3.13;2.85;;;;;;;9.25;83.86;101215.25;2079111;28;45801;-75
2022/06/01 00:15:19;;;;;;;3.20;2.90;;;;;;;9.24;83.92;101211.69;2080485;28;38335;-75
2022/06/01 00:16:22;;;;;;;3.30;3.00;;;;;;;9.24;84.35;101210.78;2080265;28;20034;-75
2022/06/01 00:17:25;;;;;;;4.40;3.00;;;;;;;9.26;85.02;101215.22;2079826;28;43769;-76
2022/06/01 00:18:26;;;;;;;3.13;2.80;;;;;;;9.24;84.25;101211.69;2079431;28;44246;-75
2022/06/01 00:19:28;;;;;;;3.20;3.00;;;;;;;9.25;84.62;101208.09;2079359;28;45578;-75
2022/06/01 00:20:30;;;;;;;4.60;3.25;;;;;;;9.25;84.42;101213.44;2078734;28;44124;-76
2022/06/01 00:21:31;;;;;;;4.68;2.85;;;;;;;9.25;83.92;101210.78;2079058;28;45216;-77
2022/06/01 00:22:33;;;;;;;2.60;2.40;;;;;;;9.26;83.94;101215.22;2071007;28;41334;-75
2022/06/01 00:23:36;;;;;;;3.30;2.97;;;;;;;9.29;83.96;101206.28;2071970;28;20045;-74
2022/06/01 00:24:39;;;;;;;4.35;3.20;;;;;;;9.30;83.68;101210.72;2078897;28;44507;-76
2022/06/01 00:25:42;;;;;;;4.47;2.75;;;;;;;9.29;83.75;101217.84;2079440;28;45461;-75
2022/06/01 00:26:43;;;;;;;2.92;2.30;;;;;;;9.28;84.12;101207.19;2078682;28;46415;-74
2022/06/01 00:27:45;;;;;;;3.67;2.85;;;;;;;9.28;83.73;101212.53;2071560;28;35078;-75
2022/06/01 00:28:47;;;;;;;4.53;2.97;;;;;;;9.28;83.89;101209.88;2078933;28;45774;-75
2022/06/01 00:29:48;;;;;;;3.25;2.95;;;;;;;9.28;83.95;101212.53;2079538;28;45584;-74
2022/06/01 00:30:50;;;;;;;4.90;3.08;;;;;;;9.27;84.42;101216.97;2080690;28;43055;-75
2022/06/01 00:31:52;;;;;;;2.95;2.72;;;;;;;9.28;83.90;101208.06;2079804;28;40871;-77
2022/06/01 00:32:53;;;;;;;4.65;2.97;;;;;;;9.27;84.22;101216.09;2080130;28;41980;-74
2022/06/01 00:33:55;;;;;;;4.43;3.22;;;;;;;9.28;84.25;101210.75;2087245;28;45674;-78
2022/06/01 00:35:00;;;;;;;3.13;2.83;;;;;;;9.29;84.64;101206.28;2087007;28;40270;-77
2022/06/01 00:36:03;;;;;;;4.32;3.45;;;;;;;9.31;84.21;101209.81;2079606;28;42074;-74
2022/06/01 00:37:05;;;;;;;3.60;3.10;;;;;;;9.31;83.84;101209.81;2079286;28;44036;-74
2022/06/01 00:38:07;;;;;;;3.97;3.50;;;;;;;9.29;84.17;101208.94;2079804;28;45644;-74
2022/06/01 00:39:12;;;;;;;3.67;3.10;;;;;;;9.28;83.79;101207.19;2079726;28;43087;-75
2022/06/01 00:40:17;;;;;;;5.25;3.40;;;;;;;9.29;83.95;101199.13;2079678;28;45166;-74
2022/06/01 00:41:19;;;;;;;4.68;3.28;;;;;;;9.28;84.34;101210.75;2086901;28;42408;-75
2022/06/01 00:42:27;;;;;;;5.07;3.20;;;;;;;9.28;83.66;101197.38;2086659;28;45685;-77
2022/06/01 00:43:44;;;;;;;4.25;3.38;;;;;;;9.29;84.07;101204.47;2079657;28;45830;-74
2022/06/01 00:44:47;;;;;;;3.20;2.92;;;;;;;9.29;85.00;101198.25;2086896;28;45236;-75
2022/06/01 00:45:50;;;;;;;4.55;3.22;;;;;;;9.29;83.81;101204.47;2078723;28;45015;-76
2022/06/01 00:46:52;;;;;;;5.80;3.20;;;;;;;9.30;84.19;101200.03;2071035;28;39366;-76
2022/06/01 00:47:54;;;;;;;5.47;3.50;;;;;;;9.33;85.38;101211.56;2079035;28;40527;-77
2022/06/01 00:49:04;;;;;;;4.40;3.33;;;;;;;9.32;84.39;101206.25;2079420;28;44626;-77
2022/06/01 00:50:08;;;;;;;3.80;3.40;;;;;;;9.33;84.94;101199.97;2086882;28;44174;-74
2022/06/01 00:51:13;;;;;;;5.13;3.60;;;;;;;9.31;84.70;101207.13;2085516;28;46460;-75
2022/06/01 00:52:15;;;;;;;3.63;3.28;;;;;;;9.32;84.02;101198.22;2078583;28;42255;-75
2022/06/01 00:53:22;;;;;;;3.95;3.35;;;;;;;9.31;84.52;101200.03;2071221;28;36166;-74
2022/06/01 00:54:26;;;;;;;4.20;3.10;;;;;;;9.30;84.75;101195.56;2071906;28;43692;-74
2022/06/01 00:55:33;;;;;;;3.90;3.17;;;;;;;9.33;83.52;101197.31;2072141;28;45841;-75
2022/06/01 00:56:45;;;;;;;3.53;3.22;;;;;;;9.32;84.15;101190.22;2072045;28;43324;-75
2022/06/01 00:57:53;;;;;;;3.40;2.75;;;;;;;9.35;83.68;101198.19;2072677;28;44239;-77
2022/06/01 00:58:57;;;;;;;3.75;3.25;;;;;;;9.37;84.26;101196.38;2073188;28;44297;-75
2022/06/01 01:00:07;;;;;;;3.20;2.90;;;;;;;9.36;83.67;101186.59;2078332;28;46315;-75
2022/06/01 01:01:20;;;;;;;4.43;3.08;;;;;;;9.35;83.60;101192.84;2082343;28;41968;-74
2022/06/01 01:02:21;;;;;;;4.68;3.38;;;;;;;9.36;83.71;101191.94;2085800;28;39013;-76
2022/06/01 01:03:27;;;;;;;4.30;2.80;;;;;;;9.37;83.37;101191.03;2079237;28;44239;-76
2022/06/01 01:04:31;;;;;;;2.95;2.50;;;;;;;9.35;83.62;101195.53;2078926;28;45796;-75
2022/06/01 01:05:37;;;;;;;2.65;2.45;;;;;;;9.31;83.58;101193.78;2087281;28;44430;-75
2022/06/01 01:06:41;;;;;;;3.30;3.00;;;;;;;9.29;83.76;101190.25;2079047;28;41348;-76
2022/06/01 01:07:45;;;;;;;4.35;3.83;;;;;;;9.30;84.12;101192.03;2071670;28;45595;-76
2022/06/01 01:08:49;;;;;;;3.88;3.30;;;;;;;9.31;84.04;101193.78;2078559;28;45720;-75
2022/06/01 01:09:51;;;;;;;3.88;3.40;;;;;;;9.31;83.84;101186.66;2086506;28;45504;-75
2022/06/01 01:10:52;;;;;;;3.65;3.35;;;;;;;9.40;83.45;101190.09;2083337;28;46158;-76
2022/06/01 01:11:59;;;;;;;3.28;2.78;;;;;;;9.35;82.85;101185.72;2079367;28;43520;-75
2022/06/01 01:13:06;;;;;;;4.20;2.88;;;;;;;9.36;83.16;101183.91;2078735;28;45512;-75
2022/06/01 01:14:11;;;;;;;3.78;3.10;;;;;;;9.36;82.56;101183.91;2073005;28;20049;-75
2022/06/01 01:15:14;;;;;;;3.55;3.25;;;;;;;9.39;82.31;101185.69;2080380;28;43994;-77
2022/06/01 01:16:17;;;;;;;4.47;3.22;;;;;;;9.43;82.44;101180.25;2086192;28;45363;-78
2022/06/01 01:17:21;;;;;;;4.45;3.33;;;;;;;9.49;81.72;101179.28;2079024;28;43399;-77
2022/06/01 01:18:30;;;;;;;3.78;2.97;;;;;;;9.47;81.91;101178.41;2079045;28;46448;-77
2022/06/01 01:19:40;;;;;;;3.75;3.35;;;;;;;9.46;81.54;101182.00;2078419;28;46339;-77
2022/06/01 01:20:47;;;;;;;5.10;3.60;;;;;;;9.50;82.18;101189.94;2072671;28;43246;-77
2022/06/01 01:22:12;;;;;;;3.05;2.60;;;;;;;9.51;81.52;101178.38;2080099;28;39181;-76
2022/06/01 01:23:37;;;;;;;2.90;2.55;;;;;;;9.52;81.31;101179.22;2079689;28;43413;-75
2022/06/01 01:24:44;;;;;;;3.90;2.90;;;;;;;9.54;81.60;101178.28;2076860;28;40616;-77
2022/06/01 01:25:46;;;;;;;2.65;2.33;;;;;;;9.54;81.48;101183.63;2078886;28;44927;-75
2022/06/01 01:26:51;;;;;;;3.22;2.70;;;;;;;9.55;81.39;101180.06;2079439;28;43050;-77
2022/06/01 01:27:57;;;;;;;4.47;2.90;;;;;;;9.55;81.50;101184.53;2078718;28;45227;-77
2022/06/01 01:28:59;;;;;;;3.33;2.80;;;;;;;9.56;81.61;101180.94;2071392;28;45896;-77
2022/06/01 01:30:33;;;;;;;3.75;2.80;;;;;;;9.55;81.18;101180.06;2078463;28;44221;-75
2022/06/01 01:31:36;;;;;;;3.38;3.08;;;;;;;9.53;81.61;101181.88;2079996;28;45155;-77
2022/06/01 01:32:38;;;;;;;3.85;3.45;;;;;;;9.52;81.27;101182.78;2079255;28;41107;-76
2022/06/01 01:33:41;;;;;;;3.25;2.38;;;;;;;9.54;81.97;101172.94;2079204;28;42886;-77
2022/06/01 01:34:44;;;;;;;3.58;2.95;;;;;;;9.53;82.03;101176.53;2079404;28;46038;-76
2022/06/01 01:35:51;;;;;;;5.28;3.30;;;;;;;9.53;81.47;101171.19;2079042;28;43736;-76
2022/06/01 01:36:59;;;;;;;3.88;2.85;;;;;;;9.54;81.90;101174.75;2080466;28;20139;-77
2022/06/01 01:38:09;;;;;;;3.53;3.22;;;;;;;9.55;81.14;101172.06;2087599;28;20048;-75
2022/06/01 01:39:15;;;;;;;3.33;2.97;;;;;;;9.57;81.62;101172.03;2078430;28;45151;-75
2022/06/01 01:40:17;;;;;;;4.40;3.10;;;;;;;9.57;80.84;101174.72;2072471;28;46298;-76
2022/06/01 01:41:49;;;;;;;3.90;3.53;;;;;;;9.58;81.53;101173.78;2078912;28;43156;-77
2022/06/01 01:42:52;;;;;;;3.75;3.40;;;;;;;9.60;80.89;101165.75;2065290;28;46471;-76
2022/06/01 01:44:05;;;;;;;4.45;2.90;;;;;;;9.62;80.98;101172.84;2071348;28;43088;-77
2022/06/01 01:45:29;;;;;;;4.07;3.70;;;;;;;9.62;81.00;101178.19;2078390;28;43984;-76
2022/06/01 01:46:31;;;;;;;6.05;3.10;;;;;;;9.62;81.27;101172.84;2075142;28;42956;-76
2022/06/01 01:47:38;;;;;;;4.22;3.08;;;;;;;9.63;81.58;101174.59;2078758;28;42387;-76
2022/06/01 01:48:39;;;;;;;4.10;3.35;;;;;;;9.63;81.66;101173.72;2086949;28;43822;-76
2022/06/01 01:49:41;;;;;;;5.45;3.75;;;;;;;9.63;82.49;101181.75;2086298;28;44542;-76
2022/06/01 01:50:43;;;;;;;4.05;3.40;;;;;;;9.63;82.76;101176.41;2086864;28;43951;-76
2022/06/01 01:51:53;;;;;;;6.55;3.78;;;;;;;9.63;83.13;101181.75;2078977;28;20155;-78
2022/06/01 01:52:55;;;;;;;3.40;3.10;;;;;;;9.63;83.25;101187.97;2072159;28;41102;-77
2022/06/01 01:54:00;;;;;;;4.80;4.07;;;;;;;9.63;83.83;101182.63;2079435;28;20160;-77
2022/06/01 01:55:18;;;;;;;3.92;3.45;;;;;;;9.64;84.89;101184.41;2079324;28;41534;-75
2022/06/01 01:56:48;;;;;;;4.90;3.85;;;;;;;9.63;85.31;101171.94;2086662;28;45620;-76
2022/06/01 01:58:04;;;;;;;4.13;3.70;;;;;;;9.61;84.18;101178.22;2081141;28;42543;-76
2022/06/01 01:59:25;;;;;;;3.65;3.35;;;;;;;9.58;84.48;101170.25;2078643;28;43814;-75
2022/06/01 02:00:34;;;;;;;4.70;4.00;;;;;;;9.56;84.93;101170.25;2072867;28;42527;-77
2022/06/01 02:01:59;;;;;;;6.97;4.30;;;;;;;9.55;85.47;101176.53;2073938;28;45854;-75
2022/06/01 02:03:27;;;;;;;4.70;4.18;;;;;;;9.53;85.59;101179.22;2066830;28;35142;-76
2022/06/01 02:06:32;;;;;;;5.30;4.03;;;;;;;9.47;84.92;101173.06;2070426;28;41512;-77
2022/06/01 02:07:45;;;;;;;4.88;4.22;;;;;;;9.45;85.22;101174.88;2079365;28;43908;-76
2022/06/01 02:09:20;;;;;;;6.53;4.78;;;;;;;9.44;85.65;101174.00;2080248;28;20053;-76
2022/06/01 02:13:13;;;;;;;6.07;5.47;;;;;;;9.40;86.33;101161.56;2078698;28;46288;-74
2022/06/01 02:14:31;;;;;;;6.00;5.10;;;;;;;9.38;87.32;101158.06;2086220;28;45124;-72
2022/06/01 02:15:43;;;;;;;6.20;5.55;;;;;;;9.39;86.84;101164.31;2084361;28;45341;-72
2022/06/01 02:17:16;;;;;;;6.15;5.55;;;;;;;9.35;86.12;101166.13;2078912;28;40988;-72
2022/06/01 02:18:31;;;;;;;7.05;5.57;;;;;;;9.32;86.57;101172.38;2078830;28;45799;-73
2022/06/01 02:19:41;;;;;;;6.00;5.43;;;;;;;9.32;86.93;101176.84;2075976;28;44814;-71
2022/06/01 02:20:50;;;;;;;6.38;5.78;;;;;;;9.30;87.76;101176.00;2073521;28;43265;-71
2022/06/01 02:21:54;;;;;;;7.32;6.18;;;;;;;9.28;88.41;101175.13;2072866;28;46528;-74
2022/06/01 02:22:56;;;;;;;6.03;5.53;;;;;;;9.28;87.73;101185.81;2071259;28;42515;-72
2022/06/01 02:24:00;;;;;;;7.28;6.60;;;;;;;9.26;87.69;101175.16;2070488;28;45566;-73
2022/06/01 02:25:02;;;;;;;6.95;6.07;;;;;;;9.25;88.13;101183.19;2070216;28;45946;-71
2022/06/01 02:26:04;;;;;;;6.80;6.20;;;;;;;9.25;88.58;101180.50;2070377;28;45104;-71
2022/06/01 02:27:09;;;;;;;7.32;6.63;;;;;;;9.25;89.04;101180.50;2077843;28;45163;-71
2022/06/01 02:28:11;;;;;;;6.20;5.60;;;;;;;9.23;87.79;101179.66;2078343;28;41955;-71
2022/06/01 02:29:19;;;;;;;7.40;6.78;;;;;;;9.22;88.68;101175.19;2078440;28;45864;-72
2022/06/01 02:30:27;;;;;;;6.55;6.00;;;;;;;9.21;87.78;101186.81;2070029;28;45839;-72
2022/06/01 02:31:30;;;;;;;6.43;5.90;;;;;;;9.21;89.08;101181.47;2073049;28;20165;-72
2022/06/01 02:32:33;;;;;;;5.90;5.30;;;;;;;9.21;89.32;101176.13;2079834;28;41197;-71
2022/06/01 02:33:35;;;;;;;8.18;7.40;;;;;;;9.20;88.42;101179.69;2078225;28;43622;-71
2022/06/01 02:34:39;;;;;;;6.85;6.25;;;;;;;9.17;88.88;101178.84;2086718;28;45432;-72
2022/06/01 02:35:45;;;;;;;6.70;5.93;;;;;;;9.17;nan;101181.50;2078054;28;45989;-72
2022/06/01 02:36:48;;;;;;;6.97;5.90;;;;;;;9.17;89.17;101176.16;2071213;28;44265;-74
2022/06/01 02:37:55;;;;;;;6.75;6.13;;;;;;;9.16;88.92;101182.38;2078022;28;45143;-72
2022/06/01 02:39:02;;;;;;;7.68;6.88;;;;;;;9.14;89.08;101176.19;2086637;28;45658;-72
2022/06/01 02:40:11;;;;;;;6.85;6.25;;;;;;;9.15;89.01;101182.41;2078372;28;45218;-72
2022/06/01 02:42:43;;;;;;;7.50;6.70;;;;;;;9.14;89.23;101173.53;2078987;28;41363;-73
2022/06/01 02:43:49;;;;;;;9.20;6.97;;;;;;;9.14;89.87;101181.53;2086612;28;45563;-72
2022/06/01 02:44:58;;;;;;;8.95;7.60;;;;;;;9.13;90.49;101171.78;2084562;28;44753;-71
2022/06/01 02:46:00;;;;;;;7.88;6.55;;;;;;;9.13;89.72;101179.78;2078889;28;43145;-71
2022/06/01 02:47:02;;;;;;;8.48;7.45;;;;;;;9.12;89.39;101174.47;2078870;28;45398;-71
2022/06/01 02:48:04;;;;;;;7.32;6.63;;;;;;;9.12;89.79;101167.31;2078708;28;43217;-71
2022/06/01 02:49:06;;;;;;;8.13;7.25;;;;;;;9.11;90.30;101172.69;2086321;28;44302;-72
2022/06/01 02:50:14;;;;;;;6.97;6.32;;;;;;;9.10;90.33;101177.16;2086316;28;43884;-74
2022/06/01 02:51:18;;;;;;;7.15;6.47;;;;;;;9.10;89.72;101166.47;2079054;28;45554;-72
2022/06/01 02:52:21;;;;;;;6.70;6.10;;;;;;;9.11;90.30;101172.69;2078616;28;42053;-72
2022/06/01 02:53:23;;;;;;;7.00;6.40;;;;;;;9.09;90.32;101175.38;2079192;28;44875;-72
2022/06/01 02:54:26;;;;;;;6.90;6.30;;;;;;;9.08;90.79;101173.63;2078596;28;45898;-72
2022/06/01 02:55:30;;;;;;;9.40;7.60;;;;;;;9.07;91.00;101170.97;2079404;28;43678;-73
2022/06/01 02:56:34;;;;;;;7.90;7.10;;;;;;;9.08;90.95;101178.06;2078322;28;44033;-72
2022/06/01 02:57:37;;;;;;;9.38;8.38;;;;;;;9.09;90.38;101174.50;2078885;28;43694;-72
2022/06/01 02:58:39;;;;;;;8.43;6.57;;;;;;;9.07;90.44;101174.50;2079007;28;41016;-72
2022/06/01 02:59:42;;;;;;;8.75;7.68;;;;;;;9.08;91.05;101173.63;2078547;28;45496;-72
2022/06/01 03:00:44;;;;;;;7.93;7.22;;;;;;;9.07;89.97;101170.97;2078568;28;46360;-72
2022/06/01 03:01:48;;;;;;;7.60;6.90;;;;;;;9.07;89.90;101170.97;2079003;28;42228;-72
2022/06/01 03:02:53;;;;;;;6.70;6.03;;;;;;;9.07;90.85;101166.50;2079590;28;45591;-72
2022/06/01 03:03:55;;;;;;;8.63;7.82;;;;;;;9.06;90.90;101164.75;2087666;28;36991;-72
2022/06/01 03:04:57;;;;;;;7.72;7.03;;;;;;;9.07;90.53;101168.28;2085913;28;45127;-71
2022/06/01 03:05:59;;;;;;;7.75;6.95;;;;;;;9.07;90.23;101168.28;2079090;28;45014;-72
2022/06/01 03:07:02;;;;;;;8.57;7.57;;;;;;;9.05;90.38;101173.66;2078118;28;41156;-71
2022/06/01 03:08:08;;;;;;;6.90;6.13;;;;;;;9.05;91.16;101167.44;2078680;28;45848;-73
2022/06/01 03:09:11;;;;;;;7.70;6.70;;;;;;;9.05;91.17;101167.44;2078258;28;45392;-73
2022/06/01 03:10:12;;;;;;;7.65;6.95;;;;;;;9.03;91.47;101170.13;2078572;28;43893;-74
2022/06/01 03:11:14;;;;;;;6.97;6.28;;;;;;;9.03;91.43;101163.91;2078650;28;45145;-73
2022/06/01 03:12:16;;;;;;;7.13;6.53;;;;;;;9.02;91.15;101168.34;2078718;28;41924;-73
2022/06/01 03:13:21;;;;;;;10.15;8.30;;;;;;;9.02;91.48;101163.00;2079358;28;42953;-73
2022/06/01 03:14:23;;;;;;;7.70;6.72;;;;;;;9.02;91.31;101168.34;2080254;28;44296;-73
2022/06/01 03:15:28;;;;;;;8.38;7.47;;;;;;;9.00;90.99;101170.16;2079231;28;45306;-73
2022/06/01 03:16:32;;;;;;;9.05;8.20;;;;;;;9.01;90.98;101169.25;2080320;28;44324;-73
2022/06/01 03:17:34;;;;;;;8.98;8.07;;;;;;;9.01;90.82;101163.91;2080078;28;43873;-73
2022/06/01 03:18:36;;;;;;;7.57;6.82;;;;;;;9.01;91.39;101161.25;2079461;28;43050;-73
2022/06/01 03:19:40;;;;;;;8.88;8.07;;;;;;;9.03;91.89;101164.78;2079541;28;44287;-73
2022/06/01 03:20:42;;;;;;;9.15;8.25;;;;;;;9.06;92.05;101163.84;2080554;28;42842;-73
2022/06/01 03:21:44;;;;;;;8.32;7.38;;;;;;;9.04;91.30;101171.00;2079871;28;42944;-73
2022/06/01 03:22:46;;;;;;;8.10;7.20;;;;;;;9.03;91.64;101170.13;2080190;28;44148;-73
2022/06/01 03:23:48;;;;;;;8.38;7.57;;;;;;;9.03;91.78;101163.91;2080041;28;44847;-73
2022/06/01 03:24:50;;;;;;;8.75;7.95;;;;;;;9.03;91.63;101170.13;2080499;28;38603;-73
2022/06/01 03:25:55;;;;;;;8.38;7.57;;;;;;;9.03;92.34;101164.78;2080995;28;20048;-73
2022/06/01 03:26:57;;;;;;;9.93;8.07;;;;;;;9.02;92.31;101160.31;2079870;28;44238;-73
2022/06/01 03:28:00;;;;;;;7.80;7.10;;;;;;;9.03;91.45;101167.44;2079593;28;40519;-72
2022/06/01 03:29:03;;;;;;;6.75;6.15;;;;;;;9.03;91.37;101167.44;2079500;28;43853;-72
2022/06/01 03:30:07;;;;;;;8.43;7.63;;;;;;;9.02;92.29;101160.31;2079243;28;47924;-72
2022/06/01 03:31:09;;;;;;;8.45;7.55;;;;;;;9.01;91.61;101171.03;2080408;28;42278;-73
2022/06/01 03:32:11;;;;;;;8.13;7.40;;;;;;;9.01;91.05;101171.03;2079578;28;43111;-73
2022/06/01 03:33:13;;;;;;;8.75;7.95;;;;;;;9.05;92.37;101170.09;2080128;28;44014;-72
2022/06/01 03:34:15;;;;;;;9.68;8.15;;;;;;;9.04;91.48;101171.88;2081489;28;45095;-72
2022/06/01 03:35:21;;;;;;;9.07;8.18;;;;;;;9.06;92.20;101171.84;2079941;28;46395;-72
2022/06/01 03:36:23;;;;;;;8.00;7.32;;;;;;;9.05;91.43;101170.97;2079900;28;43275;-73
2022/06/01 03:37:26;;;;;;;8.73;7.80;;;;;;;9.03;91.62;101170.13;2080114;28;44437;-73
2022/06/01 03:38:31;;;;;;;8.55;7.25;;;;;;;9.03;92.05;101177.25;2080729;28;20034;-72
2022/06/01 03:39:35;;;;;;;7.40;6.68;;;;;;;9.03;91.36;101180.81;2080415;28;44252;-72
2022/06/01 03:40:39;;;;;;;7.45;6.60;;;;;;;9.03;92.35;101172.78;2078671;28;44940;-72
2022/06/01 03:41:42;;;;;;;9.88;8.98;;;;;;;9.02;92.30;101188.81;2079558;28;44334;-72
2022/06/01 03:42:44;;;;;;;9.93;8.48;;;;;;;9.02;92.40;101183.47;2080351;28;43028;-72
2022/06/01 03:46:34;;;;;;;8.73;7.90;;;;;;;9.02;92.56;101173.69;2080850;28;23440;-73
2022/06/01 03:47:38;;;;;;;9.60;8.60;;;;;;;9.09;92.92;101180.72;2088059;28;39016;-72
2022/06/01 03:48:40;;;;;;;10.23;9.23;;;;;;;9.07;92.15;101177.19;2086846;28;45640;-72
2022/06/01 03:49:43;;;;;;;8.50;7.75;;;;;;;9.06;91.49;101175.44;2080042;28;46085;-71
2022/06/01 03:50:45;;;;;;;8.98;8.07;;;;;;;9.06;92.64;101175.44;2079868;28;41128;-73
2022/06/01 03:51:47;;;;;;;9.13;8.32;;;;;;;9.08;92.03;101173.63;2079694;28;44367;-72
2022/06/01 03:52:50;;;;;;;9.68;8.77;;;;;;;9.09;92.56;101170.03;2080053;28;45632;-71
2022/06/01 03:53:55;;;;;;;10.18;9.10;;;;;;;9.12;92.83;101177.13;2080373;28;31388;-72
2022/06/01 03:55:00;;;;;;;10.27;9.35;;;;;;;9.13;92.49;101181.56;2080802;28;21163;-71
2022/06/01 03:56:03;;;;;;;9.38;8.48;;;;;;;9.13;92.24;101176.22;2080009;28;43441;-74
2022/06/01 03:57:07;;;;;;;11.13;9.35;;;;;;;9.14;92.21;101173.53;2087706;28;33984;-72
2022/06/01 03:58:19;;;;;;;10.15;9.25;;;;;;;9.16;92.49;101176.19;2087214;28;47134;-71
2022/06/01 03:59:21;;;;;;;7.88;7.07;;;;;;;9.16;93.00;101176.19;2080015;28;39843;-73
2022/06/01 04:00:25;;;;;;;10.38;9.38;;;;;;;9.16;91.89;101177.06;2079556;28;43871;-72
2022/06/01 04:01:27;;;;;;;9.02;8.07;;;;;;;9.16;91.97;101177.06;2079440;28;41021;-72
2022/06/01 04:02:29;;;;;;;11.75;9.32;;;;;;;9.16;92.08;101177.06;2079575;28;40309;-73
2022/06/01 04:03:30;;;;;;;8.93;8.13;;;;;;;9.18;92.56;101179.72;2079873;28;45928;-73
2022/06/01 04:04:33;;;;;;;8.48;7.68;;;;;;;9.18;92.82;101180.59;2081934;28;43370;-72
2022/06/01 04:05:35;;;;;;;9.60;8.70;;;;;;;9.17;91.96;101183.31;2087246;28;46446;-72
2022/06/01 04:06:37;;;;;;;10.15;9.15;;;;;;;9.16;91.62;101186.88;2087716;28;43467;-73
2022/06/01 04:07:39;;;;;;;10.43;9.35;;;;;;;9.14;91.43;101189.53;2080773;28;20070;-73
2022/06/01 04:08:43;;;;;;;11.25;9.93;;;;;;;9.16;93.14;101193.06;2079850;28;47651;-73
2022/06/01 04:09:45;;;;;;;10.23;9.32;;;;;;;9.16;91.67;101194.88;2079638;28;43517;-72
2022/06/01 04:10:47;;;;;;;9.77;8.88;;;;;;;9.16;92.26;101193.06;2079880;28;40746;-73
2022/06/01 04:11:51;;;;;;;9.30;8.50;;;;;;;9.17;92.99;101189.53;2079258;28;45534;-73
2022/06/01 04:12:53;;;;;;;10.18;9.15;;;;;;;9.17;92.20;101191.31;2071900;28;42881;-73
2022/06/01 04:13:55;;;;;;;8.82;7.93;;;;;;;9.18;92.13;101191.25;2078451;28;45140;-74
2022/06/01 04:14:56;;;;;;;9.75;8.85;;;;;;;9.20;92.21;101193.91;2079886;28;43651;-73
2022/06/01 04:15:58;;;;;;;11.35;10.15;;;;;;;9.21;92.44;101193.03;2079456;28;45211;-73
2022/06/01 04:17:07;;;;;;;9.32;8.40;;;;;;;9.23;92.05;101195.69;2079953;28;45748;-73
2022/06/01 04:18:10;;;;;;;9.40;8.48;;;;;;;9.23;92.82;101196.56;2079939;28;44112;-74
2022/06/01 04:19:12;;;;;;;10.82;9.82;;;;;;;9.26;91.98;101192.94;2079448;28;46650;-73
2022/06/01 04:20:14;;;;;;;11.30;9.75;;;;;;;9.27;92.60;101197.41;2079962;28;41861;-74
2022/06/01 04:21:23;;;;;;;11.10;10.00;;;;;;;9.28;92.47;101199.19;2087393;28;42743;-72
2022/06/01 04:22:24;;;;;;;9.60;8.65;;;;;;;9.28;92.37;101196.50;2087371;28;44039;-73
2022/06/01 04:23:26;;;;;;;11.13;10.07;;;;;;;9.29;92.46;101199.13;2086773;28;35218;-74
2022/06/01 04:24:31;;;;;;;10.43;9.52;;;;;;;9.30;92.12;101200.03;2079218;28;44868;-72
2022/06/01 04:25:32;;;;;;;10.23;9.32;;;;;;;9.30;92.04;101200.91;2079541;28;43498;-73
2022/06/01 04:26:34;;;;;;;10.45;9.55;;;;;;;9.32;91.83;101198.22;2079750;28;45892;-73
2022/06/01 04:27:38;;;;;;;11.35;10.00;;;;;;;9.31;91.74;101202.69;2080052;28;43957;-73
2022/06/01 04:28:43;;;;;;;11.02;9.95;;;;;;;9.33;91.51;101203.56;2080226;28;36182;-74
2022/06/01 04:29:44;;;;;;;10.30;9.40;;;;;;;9.35;91.64;101200.88;2079780;28;42968;-73
2022/06/01 04:30:46;;;;;;;8.90;8.02;;;;;;;9.37;92.25;101196.38;2079268;28;47363;-73
2022/06/01 04:31:49;;;;;;;9.32;8.43;;;;;;;9.38;91.72;101206.16;2079739;28;44980;-73
2022/06/01 04:32:56;;;;;;;10.15;9.18;;;;;;;9.39;91.34;101199.03;2079414;28;46526;-73
2022/06/01 04:33:57;;;;;;;8.45;7.70;;;;;;;9.39;91.28;101202.59;2079210;28;38496;-73
2022/06/01 04:35:02;;;;;;;8.43;7.63;;;;;;;9.40;92.03;101199.00;2080961;28;44255;-74
2022/06/01 04:36:04;;;;;;;10.18;9.23;;;;;;;9.42;92.11;101201.66;2079999;28;45628;-74
2022/06/01 04:37:08;;;;;;;11.82;10.48;;;;;;;9.41;91.97;101203.44;2079761;28;43855;-74
2022/06/01 04:38:12;;;;;;;9.63;8.68;;;;;;;9.42;92.13;101196.31;2079601;28;46262;-74
2022/06/01 04:39:17;;;;;;;11.13;10.13;;;;;;;9.42;92.10;101204.31;2079217;28;43564;-75
2022/06/01 04:40:22;;;;;;;12.43;10.77;;;;;;;9.41;92.44;101202.56;2080350;28;20049;-74
2022/06/01 04:41:24;;;;;;;10.75;9.68;;;;;;;9.42;91.28;101201.66;2079396;28;43592;-74
2022/06/01 04:42:28;;;;;;;11.73;10.63;;;;;;;9.43;91.38;101206.09;2079603;28;46246;-74
2022/06/01 04:43:30;;;;;;;10.55;9.57;;;;;;;9.43;91.10;101200.75;2079759;28;44951;-73
2022/06/01 04:44:34;;;;;;;10.20;9.07;;;;;;;9.43;92.16;101203.44;2079287;28;43653;-75
2022/06/01 04:45:36;;;;;;;9.75;8.95;;;;;;;9.44;91.33;101202.50;2079235;28;44733;-74
2022/06/01 04:46:37;;;;;;;8.90;8.10;;;;;;;9.45;91.26;101199.81;2079082;28;44928;-75
2022/06/01 04:47:39;;;;;;;11.27;9.90;;;;;;;9.45;91.78;101198.94;2079946;28;44644;-75
2022/06/01 04:48:41;;;;;;;10.25;9.15;;;;;;;9.46;91.67;101201.59;2080413;28;23069;-74
2022/06/01 04:49:46;;;;;;;11.18;10.07;;;;;;;9.45;91.86;101194.47;2078787;28;43493;-73
2022/06/01 04:50:48;;;;;;;11.57;10.38;;;;;;;9.45;91.43;101194.47;2079272;28;38870;-73
2022/06/01 04:51:50;;;;;;;12.85;11.60;;;;;;;9.45;91.74;101194.47;2087237;28;44031;-73
2022/06/01 04:52:54;;;;;;;11.68;10.45;;;;;;;9.46;92.13;101200.72;2086840;28;43514;-74
2022/06/01 04:53:57;;;;;;;12.25;11.07;;;;;;;9.46;92.07;101198.94;2080342;28;20903;-74
2022/06/01 04:54:58;;;;;;;11.57;10.55;;;;;;;9.46;91.63;101201.59;2079677;28;44619;-73
2022/06/01 04:56:00;;;;;;;12.75;11.55;;;;;;;9.46;92.09;101198.94;2079752;28;44093;-73
2022/06/01 04:57:02;;;;;;;13.27;11.30;;;;;;;9.49;92.57;101208.66;2079492;28;45066;-74
2022/06/01 04:58:03;;;;;;;14.60;12.68;;;;;;;9.49;92.70;101201.56;2079806;28;43742;-74
2022/06/01 04:59:09;;;;;;;15.05;12.50;;;;;;;9.50;92.75;101207.78;2074788;28;20050;-73
2022/06/01 05:00:12;;;;;;;12.55;10.68;;;;;;;9.50;92.77;101200.63;2079715;28;44285;-75
2022/06/01 05:01:13;;;;;;;13.00;11.70;;;;;;;9.51;92.54;101210.44;2079561;28;43761;-74
2022/06/01 05:02:16;;;;;;;13.02;11.32;;;;;;;9.52;92.58;101212.19;2078997;28;43923;-73
2022/06/01 05:03:20;;;;;;;12.95;11.75;;;;;;;9.54;92.32;101206.81;2078858;28;41607;-74
2022/06/01 05:04:23;;;;;;;11.40;10.30;;;;;;;9.56;91.80;101210.34;2079341;28;44070;-74
2022/06/01 05:05:25;;;;;;;13.52;11.40;;;;;;;9.58;92.57;101213.88;2081569;28;45679;-74
2022/06/01 05:06:27;;;;;;;12.85;11.57;;;;;;;9.60;92.16;101216.53;2080302;28;43855;-75
2022/06/01 05:07:29;;;;;;;13.88;12.57;;;;;;;9.62;93.33;101212.03;2079777;28;38854;-75
2022/06/01 05:08:31;;;;;;;13.43;12.13;;;;;;;9.62;92.57;101212.03;2079551;28;42389;-75
2022/06/01 05:09:35;;;;;;;13.80;11.68;;;;;;;9.64;92.66;101212.94;2078940;28;44290;-75
2022/06/01 05:10:37;;;;;;;13.15;11.85;;;;;;;9.65;92.61;101206.66;2079327;28;43459;-74
2022/06/01 05:11:39;;;;;;;13.75;12.45;;;;;;;9.67;92.42;101210.19;2079478;28;45112;-74
2022/06/01 05:12:41;;;;;;;15.15;13.63;;;;;;;9.69;92.85;101203.03;2079363;28;48017;-75
2022/06/01 05:13:42;;;;;;;14.35;12.95;;;;;;;9.72;92.84;101205.66;2079527;28;42303;-74